KGRK - Killeen-Ft Hood Rgnl, TX, US

Issued at 0000 UTC 06 Dec 2019
Updated at 0336 UTC 06 Dec 2019
Potential Impact None Slight Moderate High
Time0258Z 06/04Z 06/05Z 06/06Z 06/07Z 06/08Z 06/09Z 06/10Z 06/11Z 06/12Z 06/13Z 06/14Z 06/15Z 06/16Z>>
Type OBS PRVL PRVL PRVL PRVL PRVL PRVL PRVL PRVL PRVL PRVL PRVL PRVL PRVL
VIS 8 >6 >6 >6 >6 >6 >6 >6 >6 >6 >6 >6 >6 >6
CIG -- -- -- -- -- -- -- -- -- -- -- -- -- --
Cover CLR FEW FEW FEW FEW SKC SKC SKC SKC SKC SKC SKC SKC SKC
FltCat VFR VFR VFR VFR VFR VFR VFR VFR VFR VFR VFR VFR VFR VFR
WX -- -- -- -- -- -- -- -- -- -- -- -- -- --
WDir 200 190 190 190 190 310 310 310 310 310 310 350 350 350
WSpd 7 10 10 10 10 10 10 10 10 10 10 15 15 15
WGst -- 15 15 15 15 15 15 15 15 15 15 25 25 25
Raw TAF
TAF KGRK 060000Z 0600/0706 19010G15KT 9999 FEW250 510103 QNH2990INS
  BECMG 0608/0609 31010G15KT 9999 SKC 510103 QNH3004INS
  BECMG 0614/0615 35015G25KT 9999 SKC 510004 QNH3022INS
  BECMG 0617/0618 34012G18KT 9999 SKC 510004 QNH3022INS
  BECMG 0622/0623 36012KT 9999 SKC QNH3024INS
  BECMG 0700/0701 02006KT 9999 SKC QNH3029INS TX20/0600Z TN11/0613Z


Raw METAR
KGRK 060258Z AUTO 20007KT 8SM CLR 19/14 A2994 RMK AO2 SLP134 T01900144 52015
KGRK 060158Z AUTO 18012KT 8SM CLR 19/14 A2993 RMK AO2 SLPNO T01870138
KGRK 060058Z AUTO 17013KT 9SM CLR 19/13 A2991 RMK AO2 SLP125 T01920133

METAR Board
For situational awareness. Not to be used for flight planning purposes.